Time;durP1;ratioP1;P1;durP2;ratioP2;P2;SDS_P1;SDS_P2;PMS_P1;PMS_P2;Temp;Humidity;BMP_temperature;BMP_pressure;BME280_temperature;BME280_humidity;BME280_pressure;Samples;Min_cycle;Max_cycle;Signal;HPM_P1;HPM_P2
2023/04/28 00:00:39;;;;;;;7.80;4.83;;;5.80;99.90;;;;;;4148551;28;20034;-71
2023/04/28 00:02:40;;;;;;;7.03;4.97;;;5.80;99.90;;;;;;4146151;28;20092;-71
2023/04/28 00:04:41;;;;;;;9.30;4.50;;;5.80;99.90;;;;;;4147261;28;20041;-71
2023/04/28 00:06:42;;;;;;;11.10;4.67;;;5.70;99.90;;;;;;4146019;28;20107;-71
2023/04/28 00:08:43;;;;;;;9.03;4.53;;;5.60;99.90;;;;;;4147019;28;20053;-69
2023/04/28 00:10:44;;;;;;;6.50;4.03;;;5.60;99.90;;;;;;4146993;28;20096;-71
2023/04/28 00:12:45;;;;;;;8.03;4.20;;;5.50;99.90;;;;;;4162879;28;20041;-71
2023/04/28 00:14:47;;;;;;;9.87;4.90;;;5.40;99.90;;;;;;4135208;28;20073;-69
2023/04/28 00:16:48;;;;;;;8.30;3.60;;;5.40;99.90;;;;;;4147108;28;20502;-70
2023/04/28 00:18:49;;;;;;;12.47;4.80;;;5.40;99.90;;;;;;4148256;28;20083;-70
2023/04/28 00:20:51;;;;;;;10.90;4.20;;;5.30;99.90;;;;;;4156258;28;20045;-69
2023/04/28 00:22:52;;;;;;;9.50;5.03;;;5.30;99.90;;;;;;4145597;28;20767;-71
2023/04/28 00:24:53;;;;;;;9.43;4.63;;;5.20;99.90;;;;;;4147302;28;20033;-70
2023/04/28 00:26:55;;;;;;;9.10;4.90;;;5.20;99.90;;;;;;4155137;28;20057;-70
2023/04/28 00:28:56;;;;;;;10.93;5.57;;;5.10;99.90;;;;;;4146963;28;20025;-71
2023/04/28 00:30:57;;;;;;;11.43;4.87;;;5.00;99.90;;;;;;4155714;28;20009;-71
2023/04/28 00:32:58;;;;;;;13.03;5.63;;;5.00;99.90;;;;;;4163327;28;20037;-71
2023/04/28 00:34:59;;;;;;;9.43;4.53;;;4.90;99.90;;;;;;4162753;28;20111;-70
2023/04/28 00:37:00;;;;;;;6.23;4.40;;;4.90;99.90;;;;;;4155068;28;20088;-71
2023/04/28 00:39:01;;;;;;;9.77;5.00;;;4.80;99.90;;;;;;4148437;28;20822;-71
2023/04/28 00:41:03;;;;;;;10.67;5.20;;;4.80;99.90;;;;;;4160003;28;20038;-71
2023/04/28 00:43:04;;;;;;;10.67;4.73;;;4.80;99.90;;;;;;4147007;28;20032;-68
2023/04/28 00:45:06;;;;;;;8.60;4.97;;;4.70;99.90;;;;;;4145853;28;20624;-71
2023/04/28 00:47:08;;;;;;;8.00;5.00;;;4.60;99.90;;;;;;4146340;28;20054;-70
2023/04/28 00:49:11;;;;;;;16.33;4.77;;;4.60;99.90;;;;;;4145750;28;20418;-70
2023/04/28 00:51:12;;;;;;;10.00;4.77;;;4.50;99.90;;;;;;4146426;28;20485;-70
2023/04/28 00:53:13;;;;;;;8.53;5.20;;;4.50;99.90;;;;;;4145803;28;20283;-71
2023/04/28 00:55:15;;;;;;;9.13;5.07;;;4.40;99.90;;;;;;4146916;28;20647;-71
2023/04/28 00:57:16;;;;;;;9.57;5.13;;;4.40;99.90;;;;;;4145603;28;20272;-71
2023/04/28 00:59:17;;;;;;;7.23;4.00;;;4.30;99.90;;;;;;4146465;28;20330;-71
2023/04/28 01:01:19;;;;;;;8.33;4.47;;;4.20;99.90;;;;;;4145476;28;21424;-71
2023/04/28 01:03:20;;;;;;;6.83;4.13;;;4.20;99.90;;;;;;4146486;28;20684;-68
2023/04/28 01:05:24;;;;;;;10.37;4.73;;;4.10;99.90;;;;;;4145874;28;20279;-71
2023/04/28 01:07:25;;;;;;;7.47;4.30;;;4.10;99.90;;;;;;4155644;28;20348;-70
2023/04/28 01:09:26;;;;;;;7.53;4.30;;;4.10;99.90;;;;;;4152956;28;20275;-71
2023/04/28 01:11:27;;;;;;;12.50;5.43;;;4.00;99.90;;;;;;4145534;28;20271;-70
2023/04/28 01:13:28;;;;;;;9.93;4.90;;;3.90;99.90;;;;;;4146716;28;20264;-71
2023/04/28 01:15:29;;;;;;;9.07;4.37;;;3.90;99.90;;;;;;4144563;28;20321;-71
2023/04/28 01:17:31;;;;;;;8.07;4.57;;;3.80;99.90;;;;;;4145955;28;20346;-70
2023/04/28 01:19:32;;;;;;;10.93;4.37;;;3.70;99.90;;;;;;4145394;28;20826;-71
2023/04/28 01:21:33;;;;;;;10.93;4.80;;;3.70;99.90;;;;;;4146713;28;20278;-71
2023/04/28 01:23:34;;;;;;;10.47;4.80;;;3.60;99.90;;;;;;4145332;28;20252;-70
2023/04/28 01:25:35;;;;;;;7.40;3.97;;;3.60;99.90;;;;;;4145996;28;20283;-71
2023/04/28 01:27:37;;;;;;;7.17;3.80;;;3.50;99.90;;;;;;4145797;28;20290;-71
2023/04/28 01:29:38;;;;;;;8.83;4.73;;;3.40;99.90;;;;;;4160473;28;20283;-71
2023/04/28 01:31:39;;;;;;;9.60;3.90;;;3.40;99.90;;;;;;4161722;28;20691;-71
2023/04/28 01:33:41;;;;;;;9.07;3.83;;;3.40;99.90;;;;;;4161984;28;20255;-71
2023/04/28 01:35:42;;;;;;;6.47;3.33;;;3.40;99.90;;;;;;4132186;28;20280;-71
2023/04/28 01:37:43;;;;;;;7.10;3.60;;;3.40;99.90;;;;;;4161022;28;20282;-70
2023/04/28 01:39:44;;;;;;;6.77;3.00;;;3.40;99.90;;;;;;4161599;28;20320;-61
2023/04/28 01:41:45;;;;;;;7.27;3.27;;;3.40;99.90;;;;;;4143132;28;20346;-71
2023/04/28 01:43:46;;;;;;;10.47;3.53;;;3.40;99.90;;;;;;4149882;28;20275;-69
2023/04/28 01:45:47;;;;;;;7.37;3.33;;;3.40;99.90;;;;;;4160144;28;20341;-70
2023/04/28 01:47:48;;;;;;;7.87;3.20;;;3.30;99.90;;;;;;4162090;28;20290;-69
2023/04/28 01:49:50;;;;;;;6.33;4.57;;;3.40;99.90;;;;;;4145782;28;20264;-70
2023/04/28 01:51:51;;;;;;;7.53;3.33;;;3.30;99.90;;;;;;4145303;28;20735;-65
2023/04/28 01:53:52;;;;;;;5.83;2.90;;;3.30;99.90;;;;;;4145284;28;20287;-67
2023/04/28 01:55:54;;;;;;;6.10;3.00;;;3.30;99.90;;;;;;4145552;28;20268;-69
2023/04/28 01:57:57;;;;;;;6.27;3.37;;;3.30;99.90;;;;;;4143438;28;20272;-70
2023/04/28 01:59:59;;;;;;;9.93;3.07;;;3.20;99.90;;;;;;4145674;28;20264;-71
2023/04/28 02:02:00;;;;;;;6.00;3.37;;;3.20;99.90;;;;;;4144344;28;20264;-68
2023/04/28 02:04:02;;;;;;;8.80;3.83;;;3.20;99.90;;;;;;4127990;28;20327;-71
2023/04/28 02:06:03;;;;;;;8.70;4.03;;;3.10;99.90;;;;;;4144431;28;20276;-69
2023/04/28 02:08:05;;;;;;;7.80;3.30;;;3.10;99.90;;;;;;4144993;28;20349;-70
2023/04/28 02:10:07;;;;;;;7.50;3.77;;;3.10;99.90;;;;;;4145543;28;20773;-70
2023/04/28 02:12:08;;;;;;;5.97;3.30;;;3.10;99.90;;;;;;4144561;28;20267;-69
2023/04/28 02:14:09;;;;;;;7.87;3.27;;;3.10;99.90;;;;;;4145768;28;20267;-64
2023/04/28 02:16:10;;;;;;;6.40;3.00;;;3.00;99.90;;;;;;4144311;28;20905;-68
2023/04/28 02:18:11;;;;;;;10.10;3.63;;;3.00;99.90;;;;;;4144516;28;20283;-67
2023/04/28 02:20:15;;;;;;;7.37;3.20;;;3.00;99.90;;;;;;4144616;28;20267;-65
2023/04/28 02:22:16;;;;;;;4.97;2.80;;;3.00;99.90;;;;;;4145741;28;20259;-68
2023/04/28 02:24:17;;;;;;;6.57;2.73;;;2.90;99.90;;;;;;4143585;28;20271;-69
2023/04/28 02:26:18;;;;;;;7.70;3.47;;;2.90;99.90;;;;;;4145594;28;20271;-68
2023/04/28 02:28:20;;;;;;;8.37;3.67;;;2.90;99.90;;;;;;4126417;28;20288;-67
2023/04/28 02:30:21;;;;;;;7.27;3.47;;;2.90;99.90;;;;;;4144651;28;20691;-69
2023/04/28 02:32:22;;;;;;;8.33;3.30;;;2.90;99.90;;;;;;4143556;28;20264;-69
2023/04/28 02:34:23;;;;;;;7.33;3.07;;;2.90;99.90;;;;;;4144728;28;20671;-69
2023/04/28 02:36:26;;;;;;;7.33;3.57;;;2.90;99.90;;;;;;4144850;28;20278;-68
2023/04/28 02:38:28;;;;;;;8.60;3.20;;;2.80;99.90;;;;;;4158046;28;20743;-69
2023/04/28 02:40:29;;;;;;;6.47;3.50;;;2.80;99.90;;;;;;4160979;28;20247;-68
2023/04/28 02:42:30;;;;;;;9.03;3.80;;;2.80;99.90;;;;;;4160692;28;20325;-70
2023/04/28 02:44:31;;;;;;;6.33;4.23;;;2.70;99.90;;;;;;4161519;28;20275;-65
2023/04/28 02:46:32;;;;;;;9.77;3.90;;;2.70;99.90;;;;;;4160135;28;20278;-69
2023/04/28 02:48:34;;;;;;;8.30;3.90;;;2.60;99.90;;;;;;4143998;28;20291;-69
2023/04/28 02:50:36;;;;;;;8.63;4.07;;;2.60;99.90;;;;;;4159626;28;20271;-66
2023/04/28 02:52:37;;;;;;;7.93;3.40;;;2.60;99.90;;;;;;4160633;28;20678;-68
2023/04/28 02:54:38;;;;;;;6.97;3.60;;;2.60;99.90;;;;;;4159965;28;20279;-69
2023/04/28 02:56:39;;;;;;;11.33;4.00;;;2.50;99.90;;;;;;4150045;28;20274;-66
2023/04/28 02:58:41;;;;;;;8.47;4.30;;;2.60;99.90;;;;;;4147529;28;20979;-65
2023/04/28 03:00:42;;;;;;;11.50;3.90;;;2.50;99.90;;;;;;4130521;28;20395;-70
2023/04/28 03:02:43;;;;;;;10.10;4.00;;;2.50;99.90;;;;;;4148361;28;20679;-68
2023/04/28 03:04:44;;;;;;;6.10;4.17;;;2.50;99.90;;;;;;4149654;28;20743;-70
2023/04/28 03:06:46;;;;;;;11.60;4.03;;;2.40;99.90;;;;;;4153734;28;20275;-70
2023/04/28 03:08:47;;;;;;;11.27;4.30;;;2.40;99.90;;;;;;4153215;28;20291;-69
2023/04/28 03:10:48;;;;;;;7.87;4.67;;;2.40;99.90;;;;;;4147907;28;20314;-68
2023/04/28 03:12:49;;;;;;;10.27;4.57;;;2.30;99.90;;;;;;4157235;28;20286;-69
2023/04/28 03:14:50;;;;;;;8.80;4.33;;;2.30;99.90;;;;;;4164653;28;20266;-70
2023/04/28 03:16:51;;;;;;;10.23;4.47;;;2.20;99.90;;;;;;4163208;28;20290;-68
2023/04/28 03:18:52;;;;;;;15.53;4.93;;;2.20;99.90;;;;;;4164510;28;20682;-69
2023/04/28 03:20:54;;;;;;;9.57;4.43;;;2.20;99.90;;;;;;4162989;28;20309;-69
2023/04/28 03:22:56;;;;;;;7.80;4.10;;;2.20;99.90;;;;;;4164499;28;20267;-71
2023/04/28 03:24:57;;;;;;;7.80;4.43;;;2.20;99.90;;;;;;4153181;28;20264;-70
2023/04/28 03:26:58;;;;;;;8.33;4.37;;;2.20;99.90;;;;;;4147079;28;20333;-69
2023/04/28 03:28:59;;;;;;;7.97;4.67;;;2.20;99.90;;;;;;4146798;28;20767;-70
2023/04/28 03:31:01;;;;;;;10.13;4.73;;;2.20;99.90;;;;;;4147915;28;20790;-70
2023/04/28 03:33:02;;;;;;;14.20;5.33;;;2.20;99.90;;;;;;4146817;28;20268;-70
2023/04/28 03:35:04;;;;;;;7.70;4.50;;;2.30;99.90;;;;;;4147951;28;20293;-69
2023/04/28 03:37:05;;;;;;;13.97;6.23;;;2.50;99.90;;;;;;4146909;28;20314;-68
2023/04/28 03:39:06;;;;;;;9.03;4.53;;;2.80;99.90;;;;;;4147292;28;20973;-69
2023/04/28 03:41:07;;;;;;;11.27;5.23;;;3.10;99.90;;;;;;4151101;28;20254;-69
2023/04/28 03:43:08;;;;;;;18.13;4.80;;;3.40;99.90;;;;;;4157743;28;20332;-66
2023/04/28 03:45:10;;;;;;;9.10;4.93;;;3.70;99.90;;;;;;4163282;28;20270;-67
2023/04/28 03:47:11;;;;;;;13.33;5.57;;;4.00;99.90;;;;;;4162874;28;20333;-70
2023/04/28 03:49:12;;;;;;;11.10;4.70;;;4.20;99.90;;;;;;4147024;28;21093;-68
2023/04/28 03:51:13;;;;;;;11.50;4.50;;;4.50;99.90;;;;;;4146426;28;20674;-68
2023/04/28 03:53:15;;;;;;;11.10;4.50;;;4.80;99.90;;;;;;4147002;28;20275;-65
2023/04/28 03:55:16;;;;;;;13.20;5.03;;;5.10;99.90;;;;;;4145926;28;20279;-70
2023/04/28 03:57:17;;;;;;;10.37;4.70;;;5.40;99.90;;;;;;4147625;28;20279;-70
2023/04/28 03:59:18;;;;;;;9.80;4.60;;;5.70;99.90;;;;;;4158821;28;20336;-71
2023/04/28 04:01:19;;;;;;;9.60;4.33;;;6.10;99.90;;;;;;4161366;28;20278;-68
2023/04/28 04:03:24;;;;;;;9.77;4.40;;;6.50;99.90;;;;;;4146376;28;20295;-70
2023/04/28 04:05:25;;;;;;;10.43;4.67;;;6.80;99.90;;;;;;4162351;28;20340;-70
2023/04/28 04:07:26;;;;;;;14.10;5.43;;;7.20;99.90;;;;;;4162063;28;20274;-65
2023/04/28 04:09:27;;;;;;;14.83;5.80;;;7.50;99.90;;;;;;4156355;28;20297;-69
2023/04/28 04:11:29;;;;;;;11.97;5.70;;;7.80;99.90;;;;;;4162789;28;20786;-71
2023/04/28 04:13:30;;;;;;;9.33;5.43;;;7.90;99.90;;;;;;4157789;28;20088;-72
2023/04/28 04:15:31;;;;;;;16.43;5.50;;;8.20;99.90;;;;;;4150323;28;20698;-65
2023/04/28 04:17:32;;;;;;;13.03;5.03;;;8.50;99.90;;;;;;4150658;28;20053;-68
2023/04/28 04:19:33;;;;;;;14.13;4.57;;;8.70;99.90;;;;;;4162631;28;20128;-68
2023/04/28 04:21:35;;;;;;;11.43;5.23;;;8.80;99.90;;;;;;4154203;28;20469;-69
2023/04/28 04:23:36;;;;;;;10.97;5.00;;;9.00;99.90;;;;;;4145025;28;20438;-69
2023/04/28 04:25:37;;;;;;;14.13;4.57;;;9.00;99.90;;;;;;4149189;28;20092;-68
2023/04/28 04:27:38;;;;;;;6.80;4.67;;;9.20;99.90;;;;;;4145729;28;20037;-68
2023/04/28 04:29:39;;;;;;;11.17;4.77;;;9.50;99.90;;;;;;4145609;28;20030;-68
2023/04/28 04:31:40;;;;;;;6.53;4.47;;;9.70;99.40;;;;;;4146012;28;20045;-70
2023/04/28 04:33:41;;;;;;;6.80;4.60;;;9.80;98.80;;;;;;4146341;28;20100;-69
2023/04/28 04:35:43;;;;;;;11.00;4.40;;;9.90;98.20;;;;;;4146594;28;20092;-68
2023/04/28 04:37:44;;;;;;;8.93;4.37;;;10.00;97.90;;;;;;4145265;28;20049;-64
2023/04/28 04:39:45;;;;;;;10.87;4.10;;;10.10;97.70;;;;;;4147071;28;20076;-70
2023/04/28 04:41:46;;;;;;;8.70;4.53;;;10.50;97.30;;;;;;4145346;28;20421;-65
2023/04/28 04:43:47;;;;;;;10.33;4.47;;;10.90;96.80;;;;;;4145930;28;20038;-64
2023/04/28 04:45:49;;;;;;;8.03;4.40;;;11.10;96.00;;;;;;4149961;28;20034;-61
2023/04/28 04:47:51;;;;;;;7.03;4.00;;;11.20;95.20;;;;;;4142932;28;20050;-68
2023/04/28 04:49:52;;;;;;;10.00;4.30;;;11.30;95.00;;;;;;4150663;28;20034;-67
2023/04/28 04:51:54;;;;;;;8.00;3.97;;;11.70;94.60;;;;;;4156263;28;20041;-68
2023/04/28 04:53:55;;;;;;;12.67;3.83;;;12.00;93.90;;;;;;4159016;28;20379;-64
2023/04/28 04:55:56;;;;;;;7.77;4.10;;;12.20;93.30;;;;;;4161508;28;20049;-70
2023/04/28 04:57:57;;;;;;;7.30;3.60;;;12.50;92.70;;;;;;4157127;28;20084;-69
2023/04/28 04:59:58;;;;;;;5.83;3.50;;;12.80;92.20;;;;;;4145704;28;20080;-70
2023/04/28 05:01:59;;;;;;;7.67;3.27;;;12.90;91.50;;;;;;4152364;28;20076;-69
2023/04/28 05:04:00;;;;;;;7.00;3.23;;;13.20;91.10;;;;;;4161859;28;20025;-70
2023/04/28 05:06:02;;;;;;;4.73;3.13;;;13.50;90.50;;;;;;4162192;28;20041;-69
2023/04/28 05:08:04;;;;;;;4.23;2.90;;;14.00;90.00;;;;;;4161691;28;20029;-67
2023/04/28 05:10:06;;;;;;;7.03;3.13;;;14.60;87.80;;;;;;4162383;28;20029;-70
2023/04/28 05:12:07;;;;;;;5.97;2.70;;;14.70;85.70;;;;;;4161763;28;20068;-68
2023/04/28 05:14:08;;;;;;;4.97;2.40;;;15.10;85.30;;;;;;4161476;28;20034;-68
2023/04/28 05:16:10;;;;;;;10.50;2.60;;;15.20;83.10;;;;;;4160866;28;20102;-69
2023/04/28 05:18:12;;;;;;;7.37;2.63;;;15.20;82.30;;;;;;4160994;28;20457;-66
2023/04/28 05:20:13;;;;;;;6.30;2.70;;;15.50;82.00;;;;;;4161982;28;20481;-66
2023/04/28 05:22:16;;;;;;;7.80;2.83;;;15.70;80.60;;;;;;4160874;28;20052;-68
2023/04/28 05:24:20;;;;;;;6.70;2.20;;;16.00;79.20;;;;;;4161797;28;20099;-69
2023/04/28 05:26:22;;;;;;;4.80;2.93;;;;;;;;;;4161204;28;20060;-69
2023/04/28 05:28:24;;;;;;;16.48;4.72;;;;;;;;;;4161924;28;20089;-70
2023/04/28 05:30:25;;;;;;;6.57;2.80;;;;;;;;;;4160904;28;20103;-68
2023/04/28 05:32:28;;;;;;;9.13;2.97;;;;;;;;;;4161870;28;20111;-69
2023/04/28 05:34:30;;;;;;;11.32;3.10;;;;;;;;;;4161270;28;20029;-68
2023/04/28 05:36:31;;;;;;;5.57;2.83;;;;;;;;;;4161610;28;20141;-69
2023/04/28 05:38:33;;;;;;;4.78;2.65;;;;;;;;;;4160323;28;20045;-67
2023/04/28 05:40:34;;;;;;;3.63;2.20;;;;;;;;;;4161169;28;20100;-70
2023/04/28 05:42:36;;;;;;;5.00;2.33;;;;;;;;;;4160843;28;20026;-67
2023/04/28 05:44:37;;;;;;;8.23;2.38;;;;;;;;;;4160775;28;20017;-65
2023/04/28 05:46:38;;;;;;;6.70;2.50;;;16.40;78.60;;;;;;4160773;28;20095;-70
2023/04/28 05:48:39;;;;;;;4.53;2.40;;;17.30;70.30;;;;;;4160199;28;20088;-68
2023/04/28 05:50:40;;;;;;;11.43;2.90;;;16.90;69.50;;;;;;4161083;28;20432;-69
2023/04/28 05:52:41;;;;;;;4.82;2.45;;;17.00;69.70;;;;;;4160067;28;20436;-68
2023/04/28 05:54:43;;;;;;;9.57;2.60;;;;;;;;;;4160511;28;20041;-63
2023/04/28 05:56:44;;;;;;;4.47;2.53;;;16.90;69.40;;;;;;4158988;28;20038;-68
2023/04/28 05:58:46;;;;;;;5.88;2.65;;;;;;;;;;4161042;28;20087;-64
2023/04/28 06:00:47;;;;;;;5.32;2.40;;;;;;;;;;4159894;28;20033;-67
2023/04/28 06:02:49;;;;;;;4.15;1.90;;;;;;;;;;4160750;28;20465;-66
2023/04/28 06:04:50;;;;;;;5.78;2.40;;;;;;;;;;4160327;28;20492;-67
2023/04/28 06:06:52;;;;;;;8.57;2.70;;;;;;;;;;4160917;28;20072;-69
2023/04/28 06:08:53;;;;;;;5.28;2.20;;;;;;;;;;4159582;28;20041;-65
2023/04/28 06:10:55;;;;;;;9.90;2.78;;;;;;;;;;4160206;28;20423;-70
2023/04/28 06:12:56;;;;;;;5.45;2.38;;;;;;;;;;4159746;28;20091;-66
2023/04/28 06:14:57;;;;;;;6.32;2.90;;;;;;;;;;4159644;28;20547;-68
2023/04/28 06:16:59;;;;;;;20.08;3.88;;;;;;;;;;4160519;28;20041;-68
2023/04/28 06:19:00;;;;;;;3.55;2.45;;;;;;;;;;4160258;28;20050;-70
2023/04/28 06:21:02;;;;;;;7.95;2.85;;;;;;;;;;4161318;28;20064;-70
2023/04/28 06:23:03;;;;;;;4.72;2.60;;;;;;;;;;4160514;28;20478;-69
2023/04/28 06:25:05;;;;;;;5.15;2.33;;;;;;;;;;4160821;28;20037;-69
2023/04/28 06:27:06;;;;;;;9.60;3.13;;;;;;;;;;4160501;28;20045;-69
2023/04/28 06:29:08;;;;;;;4.93;2.80;;;;;;;;;;4160213;28;20053;-68
2023/04/28 06:31:09;;;;;;;8.18;3.42;;;17.20;68.30;;;;;;4160304;28;20128;-66
2023/04/28 06:33:10;;;;;;;7.72;3.03;;;;;;;;;;4160708;28;20084;-66
2023/04/28 06:35:12;;;;;;;4.78;2.50;;;;;;;;;;4159964;28;20037;-65
2023/04/28 06:37:13;;;;;;;8.68;2.80;;;;;;;;;;4160301;28;20041;-66
2023/04/28 06:39:15;;;;;;;7.15;2.88;;;;;;;;;;4160287;28;20037;-70
2023/04/28 06:41:16;;;;;;;8.38;2.78;;;;;;;;;;4160878;28;20046;-71
2023/04/28 06:43:17;;;;;;;5.25;2.67;;;;;;;;;;4159591;28;20088;-67
2023/04/28 06:45:18;;;;;;;5.78;2.90;;;17.50;66.10;;;;;;4160989;28;20042;-70
2023/04/28 06:47:20;;;;;;;11.45;3.50;;;;;;;;;;4160631;28;20018;-67
2023/04/28 06:49:21;;;;;;;8.02;3.30;;;;;;;;;;4160675;28;20045;-69
2023/04/28 06:51:23;;;;;;;5.45;2.70;;;;;;;;;;4160987;28;20147;-72
2023/04/28 06:53:24;;;;;;;5.40;2.63;;;;;;;;;;4159757;28;20080;-67
2023/04/28 06:55:26;;;;;;;4.43;2.10;;;;;;;;;;4160455;28;20445;-66
2023/04/28 06:57:27;;;;;;;4.30;2.53;;;;;;;;;;4160301;28;20025;-67
2023/04/28 06:59:29;;;;;;;4.47;2.65;;;;;;;;;;4160575;28;20084;-71
2023/04/28 07:01:30;;;;;;;4.50;2.40;;;;;;;;;;4160016;28;20496;-64
2023/04/28 07:03:31;;;;;;;6.65;2.47;;;;;;;;;;4161260;28;20087;-68
2023/04/28 07:05:33;;;;;;;4.88;2.10;;;;;;;;;;4160019;28;20049;-71
2023/04/28 07:07:35;;;;;;;2.50;1.60;;;;;;;;;;4161279;28;20030;-66
2023/04/28 07:09:36;;;;;;;3.40;1.73;;;17.50;65.30;;;;;;4159944;28;20041;-67
2023/04/28 07:11:37;;;;;;;6.57;2.03;;;17.70;62.60;;;;;;4160089;28;20038;-69
2023/04/28 07:13:38;;;;;;;3.30;1.40;;;17.10;61.20;;;;;;4159713;28;20030;-68
2023/04/28 07:15:40;;;;;;;1.80;1.35;;;;;;;;;;4160323;28;20441;-70
2023/04/28 07:17:41;;;;;;;4.20;1.20;;;17.10;61.00;;;;;;4159236;28;20099;-69
2023/04/28 07:19:42;;;;;;;3.22;1.52;;;17.30;60.00;;;;;;4159912;28;20042;-66
2023/04/28 07:21:43;;;;;;;2.95;1.35;;;16.90;60.00;;;;;;4160778;28;20107;-68
2023/04/28 07:23:45;;;;;;;3.30;0.90;;;17.00;60.70;;;;;;4160312;28;20025;-70
2023/04/28 07:25:46;;;;;;;4.40;1.23;;;17.10;58.90;;;;;;4160823;28;20029;-67
2023/04/28 07:27:47;;;;;;;4.20;1.30;;;17.20;58.90;;;;;;4159927;28;20033;-68
2023/04/28 07:29:48;;;;;;;1.95;0.80;;;16.80;58.10;;;;;;4160959;28;20038;-66
2023/04/28 07:31:49;;;;;;;3.30;0.93;;;15.50;56.60;;;;;;4159496;28;20037;-68
2023/04/28 07:33:51;;;;;;;6.25;1.73;;;14.60;57.40;;;;;;4160935;28;20524;-69
2023/04/28 07:35:52;;;;;;;2.78;1.23;;;14.00;58.20;;;;;;4159047;28;20037;-69
2023/04/28 07:37:54;;;;;;;7.43;1.30;;;14.10;59.20;;;;;;4160250;28;20099;-70
2023/04/28 07:39:56;;;;;;;5.15;1.40;;;14.40;58.90;;;;;;4161530;28;20029;-70
2023/04/28 07:41:57;;;;;;;3.97;0.77;;;14.40;58.20;;;;;;4164126;28;20029;-69
2023/04/28 07:43:58;;;;;;;2.20;1.00;;;13.70;57.30;;;;;;4162910;28;20041;-66
2023/04/28 07:46:00;;;;;;;2.90;0.77;;;13.40;57.00;;;;;;4162733;28;20037;-68
2023/04/28 07:48:01;;;;;;;3.13;1.20;;;13.30;57.00;;;;;;4163006;28;20038;-62
2023/04/28 07:50:04;;;;;;;1.00;0.80;;;13.10;57.40;;;;;;4163218;28;20037;-70
2023/04/28 07:52:05;;;;;;;2.23;0.83;;;13.10;57.70;;;;;;4162738;28;20107;-68
2023/04/28 07:54:06;;;;;;;4.07;0.83;;;12.90;57.60;;;;;;4162827;28;20091;-69
2023/04/28 07:56:07;;;;;;;5.53;0.80;;;12.90;57.80;;;;;;4163445;28;20465;-68
2023/04/28 07:58:08;;;;;;;1.70;1.10;;;12.90;58.00;;;;;;4161832;28;20049;-69
2023/04/28 08:00:10;;;;;;;6.00;1.70;;;13.20;58.80;;;;;;4162724;28;20038;-68
2023/04/28 08:02:13;;;;;;;4.90;1.30;;;13.60;58.70;;;;;;4162308;28;20034;-68
2023/04/28 08:04:14;;;;;;;4.27;1.27;;;13.80;57.80;;;;;;4163547;28;20375;-70
2023/04/28 08:06:15;;;;;;;5.53;1.53;;;14.20;58.60;;;;;;4162409;28;20034;-69
2023/04/28 08:08:17;;;;;;;4.93;1.57;;;14.30;58.50;;;;;;4163692;28;20551;-70
2023/04/28 08:10:18;;;;;;;2.60;1.40;;;14.70;58.60;;;;;;4162082;28;20033;-62
2023/04/28 08:12:20;;;;;;;6.80;1.33;;;15.00;58.80;;;;;;4163581;28;20060;-71
2023/04/28 08:14:21;;;;;;;4.70;1.27;;;15.20;58.40;;;;;;4162161;28;20033;-64
2023/04/28 08:16:23;;;;;;;2.73;1.00;;;14.80;56.90;;;;;;4162210;28;20037;-69
2023/04/28 08:18:24;;;;;;;3.07;0.70;;;14.50;56.30;;;;;;4162079;28;20045;-69
2023/04/28 08:20:25;;;;;;;8.07;1.30;;;14.20;57.80;;;;;;4161972;28;20379;-70
2023/04/28 08:22:26;;;;;;;4.73;1.30;;;14.30;58.00;;;;;;4162067;28;20442;-71
2023/04/28 08:24:29;;;;;;;3.20;0.90;;;14.30;58.30;;;;;;4162402;28;20033;-70
2023/04/28 08:26:30;;;;;;;6.40;2.07;;;14.10;57.50;;;;;;4162314;28;20030;-65
2023/04/28 08:28:32;;;;;;;2.45;1.10;;;13.80;58.20;;;;;;4160381;28;20076;-67
2023/04/28 08:30:34;;;;;;;3.20;1.47;;;13.30;57.60;;;;;;4161679;28;20068;-69
2023/04/28 08:32:35;;;;;;;4.07;1.10;;;13.00;58.00;;;;;;4161560;28;20389;-68
2023/04/28 08:34:36;;;;;;;7.20;2.07;;;13.10;58.60;;;;;;4162738;28;20025;-66
2023/04/28 08:36:37;;;;;;;13.07;2.50;;;13.20;58.80;;;;;;4161925;28;20386;-69
2023/04/28 08:38:39;;;;;;;5.07;2.00;;;13.10;59.20;;;;;;4162261;28;20052;-68
2023/04/28 08:40:41;;;;;;;4.63;1.50;;;13.30;58.70;;;;;;4161142;28;20103;-70
2023/04/28 08:42:45;;;;;;;2.60;1.23;;;13.60;58.50;;;;;;4162658;28;20096;-69
2023/04/28 08:44:48;;;;;;;14.53;2.10;;;13.80;59.00;;;;;;4161534;28;20089;-67
2023/04/28 08:46:51;;;;;;;4.00;1.40;;;13.80;59.40;;;;;;4162863;28;20033;-71
2023/04/28 08:48:58;;;;;;;3.77;1.00;;;13.40;57.80;;;;;;4161037;28;20091;-66
2023/04/28 08:51:01;;;;;;;5.00;1.57;;;12.80;58.50;;;;;;4161338;28;20421;-71
2023/04/28 08:53:03;;;;;;;2.33;0.97;;;12.40;59.60;;;;;;4161537;28;20091;-68
2023/04/28 08:55:10;;;;;;;4.23;1.33;;;12.30;59.50;;;;;;4162198;28;20551;-67
2023/04/28 08:57:11;;;;;;;5.93;2.00;;;12.40;59.90;;;;;;4161324;28;20041;-63
2023/04/28 08:59:13;;;;;;;5.00;1.50;;;12.70;60.80;;;;;;4161965;28;20037;-70
2023/04/28 09:01:14;;;;;;;2.83;1.47;;;13.20;60.30;;;;;;4161713;28;20026;-68
2023/04/28 09:03:15;;;;;;;1.40;1.10;;;13.40;60.00;;;;;;4160745;28;20065;-69
2023/04/28 09:05:16;;;;;;;9.03;2.00;;;13.60;59.60;;;;;;4162696;28;20037;-69
2023/04/28 09:07:17;;;;;;;3.10;1.37;;;13.90;59.90;;;;;;4160347;28;20094;-66
2023/04/28 09:09:23;;;;;;;3.97;1.10;;;14.10;59.40;;;;;;4144392;28;20100;-67
2023/04/28 09:11:24;;;;;;;5.00;1.80;;;14.10;59.30;;;;;;4161145;28;20033;-71
2023/04/28 09:13:25;;;;;;;5.10;1.27;;;13.70;59.30;;;;;;4161638;28;20936;-66
2023/04/28 09:15:39;;;;;;;7.57;2.30;;;13.30;60.00;;;;;;4143573;28;20037;-68
2023/04/28 09:17:48;;;;;;;6.33;1.80;;;13.00;60.10;;;;;;4161691;28;20092;-61
2023/04/28 09:19:49;;;;;;;2.73;1.00;;;13.10;60.40;;;;;;4161252;28;20159;-66
2023/04/28 09:21:56;;;;;;;3.10;1.10;;;13.40;60.20;;;;;;4162268;28;20489;-68
2023/04/28 09:23:57;;;;;;;3.37;1.00;;;13.40;59.70;;;;;;4161016;28;20029;-68
2023/04/28 09:25:58;;;;;;;7.17;1.80;;;13.30;60.00;;;;;;4161853;28;20448;-68
2023/04/28 09:28:20;;;;;;;1.50;1.00;;;13.10;59.40;;;;;;4161055;28;20033;-70
2023/04/28 09:30:39;;;;;;;2.27;1.20;;;12.70;59.40;;;;;;4161991;28;20041;-70
2023/04/28 09:32:40;;;;;;;1.83;0.90;;;12.70;60.80;;;;;;4160646;28;20021;-69
2023/04/28 09:34:53;;;;;;;2.27;1.23;;;12.80;60.20;;;;;;4162122;28;20037;-67
2023/04/28 09:36:54;;;;;;;4.57;1.43;;;12.90;59.70;;;;;;4160497;28;20041;-69
2023/04/28 09:38:59;;;;;;;2.70;1.17;;;12.70;59.70;;;;;;4161365;28;20038;-69
2023/04/28 09:41:02;;;;;;;2.07;1.27;;;12.80;59.80;;;;;;4161030;28;20030;-69
2023/04/28 09:43:03;;;;;;;1.67;1.10;;;12.70;59.80;;;;;;4161569;28;20445;-70
2023/04/28 09:45:05;;;;;;;2.00;1.10;;;12.70;60.10;;;;;;4160995;28;20079;-70
2023/04/28 09:47:27;;;;;;;3.37;1.50;;;12.80;60.60;;;;;;4161571;28;20147;-71
2023/04/28 09:49:28;;;;;;;2.20;1.17;;;13.10;60.90;;;;;;4159871;28;20053;-68
2023/04/28 09:51:30;;;;;;;7.30;1.63;;;13.00;60.70;;;;;;4161640;28;20037;-68
2023/04/28 09:53:32;;;;;;;4.93;1.90;;;12.90;61.70;;;;;;4161087;28;20026;-69
2023/04/28 09:55:35;;;;;;;3.70;1.43;;;12.60;61.50;;;;;;4161235;28;20438;-67
2023/04/28 09:57:37;;;;;;;3.50;1.80;;;12.40;61.60;;;;;;4161088;28;20025;-70
2023/04/28 09:59:39;;;;;;;5.50;2.07;;;12.30;61.80;;;;;;4160889;28;20033;-70
2023/04/28 10:01:41;;;;;;;3.63;1.53;;;12.30;62.50;;;;;;4143441;28;20089;-70
2023/04/28 10:03:44;;;;;;;3.83;2.20;;;12.50;62.50;;;;;;4159809;28;20482;-71
2023/04/28 10:05:47;;;;;;;3.73;1.97;;;12.90;62.10;;;;;;4162074;28;20551;-68
2023/04/28 10:07:49;;;;;;;3.60;1.70;;;13.20;61.80;;;;;;4160380;28;20064;-70
2023/04/28 10:09:50;;;;;;;3.57;1.37;;;13.30;60.50;;;;;;4160770;28;20071;-64
2023/04/28 10:11:52;;;;;;;4.90;2.07;;;13.50;60.40;;;;;;4160507;28;20351;-68
2023/04/28 10:13:53;;;;;;;3.23;1.30;;;13.70;60.70;;;;;;4160744;28;20494;-69
2023/04/28 10:15:56;;;;;;;2.40;1.23;;;13.90;60.60;;;;;;4159567;28;20041;-71
2023/04/28 10:17:59;;;;;;;4.53;1.90;;;14.00;61.20;;;;;;4160846;28;20053;-61
2023/04/28 10:20:00;;;;;;;1.87;1.30;;;14.00;61.10;;;;;;4160097;28;20405;-65
2023/04/28 10:22:39;;;;;;;1.90;1.70;;;13.90;61.10;;;;;;4161451;28;20029;-67
2023/04/28 10:24:51;;;;;;;1.73;1.50;;;13.70;59.80;;;;;;4159452;28;20048;-67
2023/04/28 10:27:28;;;;;;;2.10;1.27;;;13.30;60.10;;;;;;4161459;28;20139;-70
2023/04/28 10:29:32;;;;;;;2.30;1.37;;;13.20;60.50;;;;;;4149582;28;20056;-65
2023/04/28 10:31:33;;;;;;;4.47;1.60;;;13.30;61.60;;;;;;4161388;28;20794;-70
2023/04/28 10:33:35;;;;;;;7.73;1.60;;;13.30;60.70;;;;;;4159433;28;20167;-70
2023/04/28 10:35:42;;;;;;;3.03;1.97;;;13.30;60.80;;;;;;4161295;28;20527;-69
2023/04/28 10:38:02;;;;;;;3.50;2.07;;;13.30;60.80;;;;;;4142493;28;20038;-71
2023/04/28 10:40:34;;;;;;;2.92;1.80;;;13.20;61.00;;;;;;4160521;28;20033;-71
2023/04/28 10:42:52;;;;;;;5.27;1.33;;;13.40;61.30;;;;;;4160188;28;20475;-64
2023/04/28 10:44:53;;;;;;;4.37;1.57;;;13.70;61.30;;;;;;4160457;28;21046;-70
2023/04/28 10:47:08;;;;;;;4.57;1.53;;;13.80;61.50;;;;;;4159028;28;20037;-69
2023/04/28 10:49:10;;;;;;;4.87;1.43;;;13.90;61.00;;;;;;4160792;28;20033;-68